Time;durP1;ratioP1;P1;durP2;ratioP2;P2;SDS_P1;SDS_P2;PMS_P1;PMS_P2;Temp;Humidity;BMP_temperature;BMP_pressure;BME280_temperature;BME280_humidity;BME280_pressure;Samples;Min_cycle;Max_cycle;Signal;HPM_P1;HPM_P2
2023/09/21 00:08:55;;;;;;;6.95;5.10;;;;;;;27.05;44.12;101989.13;21058033;28;20248;-60
2023/09/21 00:18:57;;;;;;;6.35;5.72;;;;;;;27.05;44.13;102003.16;21076139;28;20089;-60
2023/09/21 00:29:04;;;;;;;6.10;5.50;;;;;;;27.05;44.12;102026.47;21054693;28;20410;-59
2023/09/21 00:39:09;;;;;;;;;;;;;;;26.98;43.98;102027.94;21064533;28;20045;-59
2023/09/21 00:49:12;;;;;;;5.78;5.05;;;;;;;26.98;44.01;102030.75;21052899;28;19916;-60
2023/09/21 00:59:15;;;;;;;6.72;5.45;;;;;;;27.03;44.39;102042.81;21043837;28;20097;-60
2023/09/21 01:09:17;;;;;;;5.88;5.32;;;;;;;27.05;44.37;102059.34;21073786;28;20356;-59
2023/09/21 01:19:18;;;;;;;6.85;5.70;;;;;;;26.96;44.36;102041.47;21045896;28;20376;-60
2023/09/21 01:29:20;;;;;;;5.95;5.35;;;;;;;27.05;44.52;102050.91;21063855;28;20627;-60
2023/09/21 01:39:24;;;;;;;10.10;5.65;;;;;;;27.07;44.50;102034.59;21078983;28;20426;-59
2023/09/21 01:49:25;;;;;;;15.55;6.32;;;;;;;27.06;44.48;102038.53;21067999;28;20036;-61
2023/09/21 01:59:27;;;;;;;7.93;5.65;;;;;;;27.01;44.53;102042.25;21047258;28;20029;-59
2023/09/21 02:09:28;;;;;;;8.75;4.95;;;;;;;27.05;44.78;102054.56;21075529;28;20070;-59
2023/09/21 02:19:37;;;;;;;10.52;5.32;;;;;;;27.04;44.82;102052.06;21045476;28;20048;-59
2023/09/21 02:29:40;;;;;;;5.97;5.25;;;;;;;27.05;45.04;102077.03;21075560;28;20040;-59
2023/09/21 02:39:43;;;;;;;7.18;5.95;;;;;;;27.06;45.60;102077.88;21075351;28;20113;-59
2023/09/21 02:49:45;;;;;;;8.48;5.45;;;;;;;26.90;46.07;102056.69;21070171;28;20121;-60
2023/09/21 02:59:46;;;;;;;8.13;5.47;;;;;;;27.07;46.81;102087.97;21070489;28;20094;-59
2023/09/21 03:09:48;;;;;;;6.30;5.45;;;;;;;27.07;47.16;102090.78;21072543;28;20052;-59
2023/09/21 03:19:52;;;;;;;6.93;5.70;;;;;;;27.07;48.02;102107.63;21076102;28;20032;-59
2023/09/21 03:29:54;;;;;;;7.43;6.25;;;;;;;27.08;48.49;102110.22;21049417;28;20036;-59
2023/09/21 03:39:55;;;;;;;7.50;6.00;;;;;;;27.08;48.16;102117.78;21084628;28;20055;-60
2023/09/21 03:49:59;;;;;;;7.40;5.82;;;;;;;27.08;47.84;102121.44;21086839;28;20036;-60
2023/09/21 04:00:00;;;;;;;7.07;5.63;;;;;;;27.08;48.00;102121.44;21085939;28;20544;-60
2023/09/21 04:10:01;;;;;;;5.95;5.07;;;;;;;27.08;48.08;102124.25;21085563;28;20032;-60
2023/09/21 04:20:12;;;;;;;7.90;5.85;;;;;;;27.07;48.14;102119.72;21084868;28;20024;-59
2023/09/21 04:30:24;;;;;;;6.50;5.53;;;;;;;27.08;48.14;102131.81;21082714;28;20039;-59
2023/09/21 04:40:26;;;;;;;7.40;5.70;;;;;;;27.07;48.03;102127.31;21083732;28;20036;-60
2023/09/21 04:50:27;;;;;;;5.55;4.90;;;;;;;27.07;48.01;102136.56;21082287;28;20423;-59
2023/09/21 05:00:29;;;;;;;7.03;5.50;;;;;;;27.07;47.96;102130.13;21080380;28;20044;-59
2023/09/21 05:10:30;;;;;;;5.50;4.85;;;;;;;27.07;47.92;102138.53;21080594;28;20449;-59
2023/09/21 05:20:32;;;;;;;5.85;5.15;;;;;;;27.07;47.73;102135.72;21079919;28;20028;-60
2023/09/21 05:30:34;;;;;;;6.47;5.30;;;;;;;27.07;47.74;102141.34;21073774;28;20040;-59
2023/09/21 05:40:35;;;;;;;7.10;5.18;;;;;;;27.07;47.59;102138.53;21077437;28;20441;-59
2023/09/21 05:50:41;;;;;;;5.68;4.80;;;;;;;27.07;47.63;102141.34;21072095;28;20043;-59
2023/09/21 06:00:45;;;;;;;7.57;5.20;;;;;;;27.06;47.72;102125.63;21074208;28;20435;-58
2023/09/21 06:10:47;;;;;;;7.25;5.18;;;;;;;27.06;47.54;102123.66;21076661;28;20039;-59
2023/09/21 06:20:49;;;;;;;5.70;5.10;;;;;;;27.04;47.48;102123.13;21076519;28;20101;-58
2023/09/21 06:30:51;;;;;;;5.95;5.20;;;;;;;27.03;47.53;102117.78;21075657;28;20066;-59
2023/09/21 06:40:52;;;;;;;5.75;5.00;;;;;;;27.04;47.37;102111.06;21075487;28;20024;-59
2023/09/21 06:50:54;;;;;;;5.68;5.00;;;;;;;27.04;47.48;102119.50;21066067;28;20033;-59
2023/09/21 07:00:55;;;;;;;5.82;4.50;;;;;;;27.02;47.60;102102.91;21087811;28;20048;-59
2023/09/21 07:10:56;;;;;;;5.07;4.63;;;;;;;26.99;47.36;102094.25;21086241;28;20391;-60
2023/09/21 07:20:58;;;;;;;6.00;5.32;;;;;;;26.99;47.58;102116.72;21083869;28;20036;-59
2023/09/21 07:31:02;;;;;;;5.65;4.80;;;;;;;27.01;47.32;102109.66;21084610;28;20044;-59
2023/09/21 07:41:06;;;;;;;6.05;4.80;;;;;;;27.01;47.21;102120.06;21085370;28;20039;-60
2023/09/21 07:51:12;;;;;;;5.28;4.30;;;;;;;27.00;47.36;102124.00;21084294;28;20453;-60
2023/09/21 08:01:14;;;;;;;5.15;4.65;;;;;;;27.00;47.26;102135.25;21083916;28;20040;-60
2023/09/21 08:11:15;;;;;;;6.03;5.10;;;;;;;26.99;47.27;102150.44;21084640;28;20056;-59
2023/09/21 08:21:17;;;;;;;5.60;4.95;;;;;;;26.99;47.27;102172.91;21085104;28;20040;-59
2023/09/21 08:31:19;;;;;;;5.93;4.90;;;;;;;26.98;47.22;102193.69;21084610;28;20036;-59
2023/09/21 08:41:21;;;;;;;4.63;4.13;;;;;;;26.95;47.26;102199.91;21083879;28;20407;-59
2023/09/21 08:51:24;;;;;;;5.60;4.60;;;;;;;26.92;47.12;102206.09;21082810;28;20039;-60
2023/09/21 09:01:28;;;;;;;5.20;4.68;;;;;;;26.94;47.28;102227.16;21081426;28;20113;-59
2023/09/21 09:11:47;;;;;;;5.25;4.65;;;;;;;26.89;47.11;102257.22;21080974;28;20052;-59
2023/09/21 09:21:50;;;;;;;4.80;4.30;;;;;;;26.86;47.31;102261.47;21079971;28;20024;-59
2023/09/21 09:31:51;;;;;;;4.63;4.15;;;;;;;26.89;47.05;102265.66;21076655;28;20036;-58
2023/09/21 09:41:53;;;;;;;4.60;4.00;;;;;;;26.92;47.11;102279.13;21075106;28;20032;-61
2023/09/21 09:51:57;;;;;;;4.93;4.43;;;;;;;26.85;46.94;102291.53;21077430;28;20042;-60
2023/09/21 10:02:00;;;;;;;4.40;4.00;;;;;;;26.79;46.90;102287.06;21077618;28;20036;-59
2023/09/21 10:12:05;;;;;;;4.90;4.40;;;;;;;26.89;46.85;102319.03;21076842;28;20051;-59
2023/09/21 10:22:26;;;;;;;4.72;4.22;;;;;;;26.81;47.00;102326.94;21076045;28;20036;-58
2023/09/21 10:32:44;;;;;;;4.60;4.20;;;;;;;26.80;47.02;102330.00;21074271;28;20043;-58
2023/09/21 10:42:45;;;;;;;4.43;4.03;;;;;;;26.87;46.92;102341.78;21072940;28;20036;-60
2023/09/21 10:52:50;;;;;;;4.60;3.80;;;;;;;26.85;46.78;102341.25;21071179;28;20183;-60
2023/09/21 11:02:54;;;;;;;4.70;4.10;;;;;;;26.83;46.83;102338.72;21068938;28;20036;-60
2023/09/21 11:12:56;;;;;;;4.90;4.10;;;;;;;26.82;46.96;102334.22;21069996;28;20044;-59
2023/09/21 11:22:57;;;;;;;3.80;3.40;;;;;;;26.81;46.80;102346.59;21071133;28;20082;-59
2023/09/21 11:32:58;;;;;;;4.43;3.90;;;;;;;26.81;46.75;102360.63;21068720;28;20052;-60
2023/09/21 11:43:00;;;;;;;3.72;3.42;;;;;;;26.80;47.03;102356.16;21002207;28;20051;-60
2023/09/21 11:53:07;;;;;;;4.57;4.18;;;;;;;26.82;46.71;102348.28;21086019;28;20044;-59
2023/09/21 12:03:12;;;;;;;7.63;5.75;;;;;;;26.81;47.01;102352.22;21064332;28;20103;-60
2023/09/21 12:13:14;;;;;;;11.85;8.10;;;;;;;26.79;46.86;102370.47;21001240;28;20043;-60
2023/09/21 12:23:16;;;;;;;14.10;9.48;;;;;;;26.79;46.86;102359.22;21001277;28;20044;-60
2023/09/21 12:33:17;;;;;;;18.15;10.88;;;;;;;26.80;47.04;102363.72;20999782;28;20049;-60
2023/09/21 12:43:19;;;;;;;19.17;13.38;;;;;;;26.78;46.92;102374.41;20998678;28;20036;-60
2023/09/21 12:53:20;;;;;;;17.27;12.80;;;;;;;26.79;47.03;102353.63;20997684;28;20032;-61
2023/09/21 13:03:22;;;;;;;19.40;13.90;;;;;;;26.78;47.04;102357.56;20998180;28;20048;-60
2023/09/21 13:13:24;;;;;;;20.45;14.70;;;;;;;26.77;47.15;102372.72;20997502;28;20438;-60
2023/09/21 13:23:28;;;;;;;21.10;15.55;;;;;;;26.75;47.14;102389.84;20996157;28;20036;-60
2023/09/21 13:33:31;;;;;;;21.15;15.73;;;;;;;26.76;47.30;102399.97;20995179;28;20044;-60
2023/09/21 13:43:34;;;;;;;20.67;15.80;;;;;;;26.74;47.34;102402.22;20993997;28;20029;-59
2023/09/21 13:53:41;;;;;;;24.10;16.48;;;;;;;26.76;47.18;102416.00;20993490;28;20036;-59
2023/09/21 14:03:43;;;;;;;21.45;15.95;;;;;;;26.75;47.34;102420.75;20992889;28;20041;-60
2023/09/21 14:13:44;;;;;;;20.95;15.90;;;;;;;26.76;47.57;102433.69;20993033;28;20473;-60
2023/09/21 14:23:45;;;;;;;20.80;15.93;;;;;;;26.76;47.69;102436.50;20992362;28;20040;-61
2023/09/21 14:33:47;;;;;;;22.13;16.08;;;;;;;26.76;47.25;102439.28;20991719;28;20428;-61
2023/09/21 14:43:48;;;;;;;21.17;16.27;;;;;;;26.77;47.39;102438.16;20991864;28;20135;-59
2023/09/21 14:53:58;;;;;;;22.30;16.40;;;;;;;26.77;47.40;102443.78;20991825;28;20102;-61
2023/09/21 15:04:00;;;;;;;20.58;15.75;;;;;;;26.76;47.34;102439.28;20991155;28;20044;-59
2023/09/21 15:14:04;;;;;;;22.15;16.38;;;;;;;26.73;47.23;102423.00;20993111;28;20399;-60
2023/09/21 15:24:06;;;;;;;18.58;13.60;;;;;;;26.78;47.28;102431.41;21005883;28;20041;-61
2023/09/21 15:34:10;;;;;;;21.23;15.13;;;;;;;26.78;47.24;102414.56;21005287;28;20048;-61
2023/09/21 15:44:12;;;;;;;19.17;13.43;;;;;;;26.79;47.17;102399.38;21004325;28;20048;-59
2023/09/21 15:54:14;;;;;;;19.88;13.52;;;;;;;26.81;47.23;102391.53;21004102;28;20048;-60
2023/09/21 16:04:17;;;;;;;19.65;14.00;;;;;;;26.76;47.05;102383.13;21002333;28;20040;-61
2023/09/21 16:14:19;;;;;;;17.50;13.02;;;;;;;26.84;47.22;102390.94;21001742;28;20447;-61
2023/09/21 16:24:21;;;;;;;18.50;13.13;;;;;;;26.85;47.01;102387.03;21000760;28;20063;-59
2023/09/21 16:34:23;;;;;;;17.10;12.98;;;;;;;26.58;46.99;102319.19;20999895;28;20446;-60
2023/09/21 16:44:24;;;;;;;17.40;12.20;;;;;;;26.89;47.10;102361.16;20999419;28;20348;-60
2023/09/21 16:54:36;;;;;;;15.75;12.18;;;;;;;26.86;47.10;102343.75;20998633;28;20103;-61
2023/09/21 17:04:38;;;;;;;13.80;11.52;;;;;;;26.88;46.94;102340.66;20997677;28;20499;-59
2023/09/21 17:14:40;;;;;;;15.32;11.60;;;;;;;26.91;46.82;102334.47;20997097;28;20037;-60
2023/09/21 17:24:44;;;;;;;13.93;10.98;;;;;;;26.92;46.81;102335.31;20996553;28;20045;-60
2023/09/21 17:34:46;;;;;;;14.32;11.07;;;;;;;26.95;46.80;102331.94;20994922;28;20044;-60
2023/09/21 17:44:48;;;;;;;15.07;10.77;;;;;;;26.97;46.80;102343.69;20995165;28;20052;-60
2023/09/21 17:54:50;;;;;;;10.70;9.10;;;;;;;26.95;46.78;102343.16;20994325;28;20032;-60
2023/09/21 18:04:51;;;;;;;12.55;9.90;;;;;;;26.98;46.75;102334.13;20993586;28;20113;-61
2023/09/21 18:14:52;;;;;;;12.32;9.25;;;;;;;27.00;46.77;102329.09;20993411;28;20052;-60
2023/09/21 18:24:56;;;;;;;13.60;9.52;;;;;;;27.01;46.82;102327.94;20992528;28;20039;-60
2023/09/21 18:34:57;;;;;;;15.18;9.15;;;;;;;27.01;46.76;102313.91;20992125;28;20491;-61
2023/09/21 18:45:00;;;;;;;11.30;9.52;;;;;;;27.00;46.76;102303.81;20992116;28;20471;-59
2023/09/21 18:55:02;;;;;;;12.10;9.20;;;;;;;27.02;46.67;102301.53;21003834;28;20048;-60
2023/09/21 19:05:04;;;;;;;11.50;8.88;;;;;;;27.06;46.68;102297.00;21007076;28;20441;-60
2023/09/21 19:15:06;;;;;;;11.38;8.68;;;;;;;27.06;46.47;102297.00;21006888;28;20550;-60
2023/09/21 19:25:08;;;;;;;10.77;8.30;;;;;;;27.08;46.60;102294.78;21005870;28;20417;-60
2023/09/21 19:35:10;;;;;;;9.88;8.30;;;;;;;27.08;46.72;102306.00;21005227;28;20040;-61
2023/09/21 19:45:11;;;;;;;9.82;7.68;;;;;;;27.09;46.52;102307.72;21004398;28;20433;-61
2023/09/21 19:55:12;;;;;;;9.68;8.30;;;;;;;27.10;46.43;102281.28;21003597;28;20032;-61
2023/09/21 20:05:14;;;;;;;9.35;8.07;;;;;;;27.10;46.57;102279.31;21001872;28;20549;-61
2023/09/21 20:15:15;;;;;;;8.98;7.20;;;;;;;27.11;46.69;102271.72;21002673;28;20049;-61
2023/09/21 20:25:18;;;;;;;9.80;7.72;;;;;;;27.10;46.54;102250.38;21001933;28;20044;-61
2023/09/21 20:35:19;;;;;;;8.68;7.35;;;;;;;27.12;46.57;102256.53;21001487;28;20102;-61
2023/09/21 20:45:26;;;;;;;8.68;7.25;;;;;;;27.12;46.54;102245.28;21052434;28;20032;-61
2023/09/21 20:55:27;;;;;;;;;;;;;;;27.13;46.50;102243.34;21083245;28;20478;-62
2023/09/21 21:05:31;;;;;;;9.52;7.43;;;;;;;27.18;46.67;102238.53;21080674;28;19916;-60
2023/09/21 21:15:36;;;;;;;9.05;7.00;;;;;;;27.08;46.60;102227.34;21073842;28;20040;-61
2023/09/21 21:25:37;;;;;;;9.00;7.28;;;;;;;27.15;46.69;102250.34;21070125;28;20033;-62
2023/09/21 21:35:39;;;;;;;9.82;6.72;;;;;;;27.15;46.60;102249.50;21070376;28;20086;-61
2023/09/21 21:45:40;;;;;;;11.55;6.80;;;;;;;27.11;46.19;102255.69;21063526;28;20044;-62
2023/09/21 21:55:42;;;;;;;9.02;6.40;;;;;;;27.13;46.42;102268.66;21074495;28;20035;-61
2023/09/21 22:05:43;;;;;;;10.38;7.07;;;;;;;27.13;46.46;102280.72;21075424;28;20097;-60
2023/09/21 22:15:48;;;;;;;10.65;6.25;;;;;;;27.11;46.20;102280.16;21076091;28;20122;-60
2023/09/21 22:25:50;;;;;;;12.65;7.05;;;;;;;27.10;46.14;102286.91;21074989;28;20101;-60
2023/09/21 22:35:51;;;;;;;10.52;6.82;;;;;;;27.12;46.05;102284.63;21075467;28;20051;-60
2023/09/21 22:45:53;;;;;;;9.70;6.60;;;;;;;27.10;46.16;102295.34;21074997;28;20548;-60
2023/09/21 22:56:04;;;;;;;6.93;5.35;;;;;;;27.05;46.22;102298.16;21075228;28;20067;-60
2023/09/21 23:06:11;;;;;;;8.40;6.00;;;;;;;27.09;46.15;102321.75;21074575;28;20117;-60
2023/09/21 23:16:13;;;;;;;8.68;6.07;;;;;;;27.09;46.22;102341.44;21073597;28;20433;-60
2023/09/21 23:26:18;;;;;;;6.15;5.53;;;;;;;27.10;46.30;102338.31;21073684;28;20040;-60
2023/09/21 23:36:20;;;;;;;8.40;5.80;;;;;;;27.10;46.42;102348.72;21077845;28;20043;-60
2023/09/21 23:46:27;;;;;;;8.00;6.00;;;;;;;27.10;46.25;102348.72;21087371;28;20032;-60
2023/09/21 23:56:32;;;;;;;7.32;6.05;;;;;;;27.09;46.27;102352.66;21087421;28;20552;-61
